createdAt,value
2022-09-07T00:02:14.706Z,75.96
2022-09-07T00:04:41.472Z,76.21
2022-09-07T00:07:08.381Z,76.05
2022-09-07T00:09:34.716Z,75.82
2022-09-07T00:12:01.997Z,75.64
2022-09-07T00:14:28.647Z,76.01
2022-09-07T00:16:55.047Z,75.93
2022-09-07T00:19:21.902Z,76.09
2022-09-07T00:21:49.093Z,76.12
2022-09-07T00:24:15.445Z,76.21
2022-09-07T00:26:41.926Z,76.11
2022-09-07T00:29:08.516Z,76.01
2022-09-07T00:31:35.211Z,76.77
2022-09-07T00:34:02.589Z,76.66
2022-09-07T00:36:29.596Z,76.57
2022-09-07T00:38:56.696Z,76.31
2022-09-07T00:41:23.717Z,76.57
2022-09-07T00:43:56.062Z,77.09
2022-09-07T00:46:26.231Z,76.70
2022-09-07T00:48:59.705Z,77.00
2022-09-07T00:51:33.319Z,77.07
2022-09-07T00:54:08.499Z,76.85
2022-09-07T00:56:38.672Z,77.29
2022-09-07T00:59:06.371Z,77.27
2022-09-07T01:01:34.296Z,77.41
2022-09-07T01:04:02.868Z,77.24
2022-09-07T01:06:33.144Z,76.98
2022-09-07T01:09:06.024Z,77.28
2022-09-07T01:11:34.336Z,77.48
2022-09-07T01:14:02.870Z,77.33
2022-09-07T01:16:48.338Z,77.82
2022-09-07T01:19:27.256Z,77.29
2022-09-07T01:22:25.915Z,77.69
2022-09-07T01:25:10.953Z,77.55
2022-09-07T01:27:59.325Z,77.36
2022-09-07T01:30:26.727Z,77.08
2022-09-07T01:33:19.510Z,77.27
2022-09-07T01:36:07.746Z,77.68
2022-09-07T01:38:42.915Z,77.49
2022-09-07T01:41:47.772Z,78.29
2022-09-07T01:44:30.222Z,77.78
2022-09-07T01:47:08.512Z,78.20
2022-09-07T01:49:44.301Z,78.10
2022-09-07T01:52:28.012Z,78.39
2022-09-07T01:55:03.478Z,78.62
2022-09-07T01:57:38.445Z,78.67
2022-09-07T02:00:17.820Z,78.50
2022-09-07T02:02:54.674Z,78.88
2022-09-07T02:05:34.651Z,79.15
2022-09-07T02:08:13.512Z,78.84
2022-09-07T02:10:48.912Z,79.09
2022-09-07T02:13:20.634Z,78.66
2022-09-07T02:16:11.213Z,78.69
2022-09-07T02:18:48.008Z,78.37
2022-09-07T02:21:20.096Z,78.27
2022-09-07T02:24:00.791Z,78.55
2022-09-07T02:26:28.966Z,78.84
2022-09-07T02:28:58.995Z,79.01
2022-09-07T02:31:27.263Z,79.42
2022-09-07T02:33:54.541Z,79.32
2022-09-07T02:36:29.905Z,79.16
2022-09-07T02:38:56.795Z,79.22
2022-09-07T02:41:36.491Z,79.46
2022-09-07T02:44:08.619Z,79.51
2022-09-07T02:46:48.135Z,79.34
2022-09-07T02:49:50.065Z,79.16
2022-09-07T02:52:31.383Z,78.89
2022-09-07T02:55:21.523Z,78.86
2022-09-07T02:58:07.209Z,79.22
2022-09-07T03:00:38.784Z,79.35
2022-09-07T03:03:39.968Z,79.68
2022-09-07T03:06:38.937Z,79.59
2022-09-07T03:09:15.897Z,79.86
2022-09-07T03:11:42.663Z,79.93
2022-09-07T03:14:18.071Z,79.82
2022-09-07T03:16:56.233Z,79.97
2022-09-07T03:19:22.795Z,79.48
2022-09-07T03:21:49.968Z,79.47
2022-09-07T03:24:16.728Z,79.49
2022-09-07T03:26:46.358Z,79.13
2022-09-07T03:29:13.024Z,79.37
2022-09-07T03:31:42.717Z,79.16
2022-09-07T03:34:16.210Z,79.33
2022-09-07T03:36:42.870Z,79.39
2022-09-07T03:39:11.766Z,79.28
2022-09-07T03:41:38.654Z,79.13
2022-09-07T03:44:06.258Z,79.10
2022-09-07T03:46:33.757Z,79.47
2022-09-07T03:49:00.900Z,79.01
2022-09-07T03:51:27.446Z,78.17
2022-09-07T03:53:55.166Z,76.26
2022-09-07T03:56:24.678Z,78.01
2022-09-07T03:58:55.105Z,77.05
2022-09-07T04:01:24.007Z,78.73
2022-09-07T04:03:51.529Z,79.58
2022-09-07T04:06:19.290Z,80.39
2022-09-07T04:08:46.295Z,79.95
2022-09-07T04:11:15.823Z,80.20
2022-09-07T04:13:46.076Z,80.60
2022-09-07T04:16:22.855Z,80.57
2022-09-07T04:18:50.901Z,80.84
2022-09-07T04:21:18.729Z,80.58
2022-09-07T04:23:51.879Z,80.94
2022-09-07T04:26:26.624Z,80.80
2022-09-07T04:28:53.981Z,80.85
2022-09-07T04:31:21.329Z,80.82
2022-09-07T04:33:49.289Z,80.98
2022-09-07T04:36:17.226Z,80.89
2022-09-07T04:38:44.099Z,80.33
2022-09-07T04:41:13.593Z,80.16
2022-09-07T04:43:40.838Z,79.75
2022-09-07T04:46:31.486Z,80.27
2022-09-07T04:49:01.115Z,80.13
2022-09-07T04:51:30.767Z,80.20
2022-09-07T04:53:59.716Z,79.96
2022-09-07T04:56:27.922Z,80.47
2022-09-07T04:58:54.728Z,80.14
2022-09-07T05:01:23.732Z,80.28
2022-09-07T05:03:50.518Z,80.08
2022-09-07T05:06:19.103Z,80.42
2022-09-07T05:08:48.410Z,80.58
2022-09-07T05:11:16.194Z,80.63
2022-09-07T05:13:43.180Z,80.21
2022-09-07T05:16:18.102Z,80.38
2022-09-07T05:18:49.245Z,80.55
2022-09-07T05:21:19.520Z,80.23
2022-09-07T05:23:49.689Z,80.29
2022-09-07T05:26:16.115Z,80.50
2022-09-07T05:28:42.595Z,80.26
2022-09-07T05:31:17.653Z,80.37
2022-09-07T05:36:47.204Z,80.49
2022-09-07T05:39:13.985Z,80.39
2022-09-07T05:41:40.493Z,80.62
2022-09-07T05:46:53.540Z,80.46
2022-09-07T05:49:20.306Z,80.59
2022-09-07T05:51:50.121Z,80.64
2022-09-07T05:54:17.983Z,80.34
2022-09-07T05:56:48.147Z,80.54
2022-09-07T05:59:14.824Z,80.13
2022-09-07T06:01:41.226Z,80.11
2022-09-07T06:04:07.785Z,80.07
2022-09-07T06:06:37.288Z,79.75
2022-09-07T06:09:03.717Z,79.71
2022-09-07T06:11:30.756Z,79.33
2022-09-07T06:13:57.190Z,78.61
2022-09-07T06:16:23.640Z,78.71
2022-09-07T06:18:50.156Z,78.67
2022-09-07T06:21:19.137Z,78.31
2022-09-07T06:23:46.941Z,78.45
2022-09-07T06:26:14.438Z,78.60
2022-09-07T06:28:43.088Z,78.51
2022-09-07T06:31:12.552Z,78.51
2022-09-07T06:33:40.449Z,77.86
2022-09-07T06:36:11.904Z,78.18
2022-09-07T06:38:39.890Z,77.97
2022-09-07T06:44:19.838Z,77.46
2022-09-07T06:49:27.912Z,77.83
2022-09-07T06:51:54.366Z,77.49
2022-09-07T06:57:07.399Z,77.39
2022-09-07T06:59:34.643Z,77.39
2022-09-07T07:02:01.302Z,77.17
2022-09-07T07:04:27.626Z,76.77
2022-09-07T07:06:54.337Z,76.76
2022-09-07T07:09:20.743Z,76.99
2022-09-07T07:11:47.170Z,77.03
2022-09-07T07:14:17.784Z,77.18
2022-09-07T07:16:44.795Z,76.90
2022-09-07T07:19:11.179Z,76.20
2022-09-07T07:21:55.198Z,76.00
2022-09-07T07:24:23.985Z,75.56
2022-09-07T07:26:50.464Z,75.44
2022-09-07T07:29:18.815Z,75.26
2022-09-07T07:31:45.924Z,74.31
2022-09-07T07:34:15.339Z,73.24
2022-09-07T07:36:42.001Z,73.13
2022-09-07T07:41:58.798Z,70.66
2022-09-07T07:44:28.428Z,70.21
2022-09-07T07:46:55.069Z,70.90
2022-09-07T07:49:21.724Z,70.73
2022-09-07T07:54:34.801Z,70.56
2022-09-07T07:57:01.092Z,70.64
2022-09-07T07:59:27.615Z,70.75
2022-09-07T08:01:54.044Z,70.71
2022-09-07T08:04:20.531Z,70.29
2022-09-07T08:06:46.908Z,69.98
2022-09-07T08:09:13.281Z,70.17
2022-09-07T08:11:39.574Z,69.52
2022-09-07T08:14:06.429Z,68.71
2022-09-07T08:16:33.638Z,68.42
2022-09-07T08:19:00.082Z,68.12
2022-09-07T08:21:26.448Z,66.92
2022-09-07T08:23:52.787Z,65.43
2022-09-07T08:26:19.266Z,65.75
2022-09-07T08:28:45.596Z,64.95
2022-09-07T08:31:15.004Z,63.41
2022-09-07T08:33:41.956Z,62.69
2022-09-07T08:36:16.477Z,62.87
2022-09-07T08:38:43.216Z,63.36
2022-09-07T08:41:37.322Z,63.49
2022-09-07T08:44:26.604Z,62.88
2022-09-07T08:46:58.852Z,61.25
2022-09-07T08:49:43.913Z,59.64
2022-09-07T08:52:16.292Z,59.74
2022-09-07T08:54:47.230Z,58.77
2022-09-07T08:57:21.064Z,57.58
2022-09-07T09:00:12.141Z,56.94
2022-09-07T09:02:43.999Z,57.68
2022-09-07T09:05:41.414Z,53.63
2022-09-07T09:08:07.825Z,51.71
2022-09-07T09:10:45.760Z,50.98
2022-09-07T09:13:26.535Z,50.02
2022-09-07T09:16:09.313Z,51.76
2022-09-07T09:19:03.146Z,52.21
2022-09-07T09:21:30.097Z,52.91
2022-09-07T09:24:11.508Z,53.55
2022-09-07T09:26:40.182Z,51.51
2022-09-07T09:29:22.507Z,51.78
2022-09-07T09:31:49.489Z,49.05
2022-09-07T09:34:23.648Z,48.21
2022-09-07T09:36:55.109Z,48.77
2022-09-07T09:39:33.115Z,50.65
2022-09-07T09:42:16.967Z,49.89
2022-09-07T09:44:44.399Z,48.97
2022-09-07T09:47:44.724Z,48.09
2022-09-07T09:53:39.448Z,46.00
2022-09-07T09:56:07.693Z,45.00
2022-09-07T10:01:33.609Z,45.83
2022-09-07T10:04:28.728Z,43.65
2022-09-07T10:06:56.407Z,44.31
2022-09-07T10:09:37.992Z,44.82
2022-09-07T10:12:07.080Z,44.75
2022-09-07T10:14:37.137Z,46.50
2022-09-07T10:17:36.493Z,46.89
2022-09-07T10:20:14.916Z,45.67
2022-09-07T10:22:43.997Z,46.93
2022-09-07T10:25:33.257Z,47.51
2022-09-07T10:28:08.320Z,47.72
2022-09-07T10:31:15.110Z,45.85
2022-09-07T10:34:25.851Z,46.34
2022-09-07T10:36:41.446Z,47.36
2022-09-07T10:39:17.229Z,47.30
2022-09-07T10:41:53.294Z,48.29
2022-09-07T10:44:31.273Z,47.00
2022-09-07T10:47:19.723Z,46.41
2022-09-07T10:50:24.913Z,47.13
2022-09-07T10:53:40.150Z,47.08
2022-09-07T10:56:15.109Z,47.32
2022-09-07T10:59:03.396Z,47.12
2022-09-07T11:01:57.636Z,46.72
2022-09-07T11:04:30.192Z,47.53
2022-09-07T11:07:12.423Z,48.06
2022-09-07T11:10:08.872Z,46.74
2022-09-07T11:12:38.486Z,46.80
2022-09-07T11:15:13.912Z,47.54
2022-09-07T11:17:55.182Z,46.82
2022-09-07T11:20:33.229Z,47.92
2022-09-07T11:23:06.816Z,47.59
2022-09-07T11:26:07.197Z,47.49
2022-09-07T11:31:55.273Z,45.68
2022-09-07T11:34:38.526Z,45.88
2022-09-07T11:37:25.361Z,46.83
2022-09-07T11:40:01.517Z,44.56
2022-09-07T11:42:45.470Z,45.99
2022-09-07T11:45:33.701Z,45.98
2022-09-07T11:48:19.485Z,46.05
2022-09-07T11:50:52.118Z,44.90
2022-09-07T11:53:24.017Z,46.09
2022-09-07T11:55:57.689Z,46.49
2022-09-07T11:58:42.586Z,43.90
2022-09-07T12:01:18.123Z,43.64
2022-09-07T12:04:10.989Z,41.88
2022-09-07T12:06:56.794Z,42.59
2022-09-07T12:09:35.447Z,42.89
2022-09-07T12:12:24.474Z,43.32
2022-09-07T12:15:13.682Z,41.26
2022-09-07T12:17:59.586Z,42.46
2022-09-07T12:20:38.970Z,41.92
2022-09-07T12:23:17.900Z,42.53
2022-09-07T12:25:46.559Z,41.06
2022-09-07T12:28:21.689Z,41.91
2022-09-07T12:30:55.947Z,41.80
2022-09-07T12:33:26.566Z,39.70
2022-09-07T12:35:53.208Z,39.62
2022-09-07T12:38:19.534Z,39.59
2022-09-07T12:40:58.159Z,38.46
2022-09-07T12:43:27.740Z,40.07
2022-09-07T12:45:54.232Z,39.39
2022-09-07T12:48:48.196Z,38.19
2022-09-07T12:54:37.050Z,38.46
2022-09-07T12:57:42.628Z,39.33
2022-09-07T13:00:20.383Z,40.01
2022-09-07T13:03:01.137Z,39.83
2022-09-07T13:05:59.392Z,39.46
2022-09-07T13:08:42.696Z,39.63
2022-09-07T13:11:37.516Z,40.06
2022-09-07T13:14:13.417Z,40.86
2022-09-07T13:19:46.762Z,40.90
2022-09-07T13:22:33.077Z,41.55
2022-09-07T13:25:23.315Z,41.73
2022-09-07T13:27:57.010Z,41.74
2022-09-07T13:30:36.618Z,42.74
2022-09-07T13:33:41.938Z,43.24
2022-09-07T13:36:24.814Z,42.92
2022-09-07T13:38:52.871Z,43.73
2022-09-07T13:41:23.953Z,44.10
2022-09-07T13:43:53.330Z,44.36
2022-09-07T13:46:38.860Z,42.56
2022-09-07T13:49:25.734Z,43.50
2022-09-07T13:52:14.760Z,43.37
2022-09-07T13:55:19.974Z,42.92
2022-09-07T13:57:55.554Z,42.95
2022-09-07T14:00:22.052Z,43.64
2022-09-07T14:02:56.492Z,43.97
2022-09-07T14:05:23.748Z,44.22
2022-09-07T14:07:50.281Z,43.81
2022-09-07T14:10:21.159Z,42.57
2022-09-07T14:12:49.117Z,43.53
2022-09-07T14:15:52.520Z,43.19
2022-09-07T14:18:29.315Z,42.34
2022-09-07T14:20:55.911Z,42.66
2022-09-07T14:23:28.850Z,42.88
2022-09-07T14:26:17.760Z,42.75
2022-09-07T14:28:46.382Z,42.50
2022-09-07T14:31:15.441Z,41.94
2022-09-07T14:33:52.484Z,41.60
2022-09-07T14:36:42.311Z,41.74
2022-09-07T14:39:11.593Z,41.09
2022-09-07T14:41:38.803Z,40.94
2022-09-07T14:44:05.218Z,41.16
2022-09-07T14:46:33.667Z,40.97
2022-09-07T14:49:03.104Z,39.37
2022-09-07T14:51:36.157Z,38.50
2022-09-07T14:54:06.020Z,38.12
2022-09-07T14:56:37.439Z,37.00
2022-09-07T14:59:39.213Z,38.20
2022-09-07T15:02:18.086Z,38.99
2022-09-07T15:04:48.791Z,37.83
2022-09-07T15:07:38.673Z,37.51
2022-09-07T15:10:21.545Z,37.94
2022-09-07T15:12:49.645Z,36.72
2022-09-07T15:15:18.945Z,37.09
2022-09-07T15:17:45.707Z,37.80
2022-09-07T15:20:36.123Z,38.03
2022-09-07T15:23:10.933Z,37.06
2022-09-07T15:25:38.354Z,37.31
2022-09-07T15:28:04.924Z,37.39
2022-09-07T15:30:31.322Z,36.67
2022-09-07T15:32:58.099Z,35.68
2022-09-07T15:35:24.626Z,36.09
2022-09-07T15:38:59.497Z,36.99
2022-09-07T15:41:10.568Z,37.33
2022-09-07T15:43:30.906Z,36.46
2022-09-07T15:45:57.536Z,37.42
2022-09-07T15:48:25.207Z,37.17
2022-09-07T15:51:00.080Z,37.39
2022-09-07T15:56:13.572Z,37.89
2022-09-07T15:58:39.926Z,37.83
2022-09-07T16:03:54.401Z,37.97
2022-09-07T16:06:22.226Z,38.35
2022-09-07T16:08:51.514Z,38.72
2022-09-07T16:11:26.337Z,38.33
2022-09-07T16:14:01.824Z,38.28
2022-09-07T16:19:20.534Z,38.16
2022-09-07T16:21:47.279Z,39.02
2022-09-07T16:24:13.629Z,38.42
2022-09-07T16:26:40.093Z,38.01
2022-09-07T16:29:06.420Z,38.72
2022-09-07T16:31:33.113Z,38.34
2022-09-07T16:34:02.031Z,38.38
2022-09-07T16:36:28.345Z,38.95
2022-09-07T16:38:56.687Z,37.56
2022-09-07T16:41:26.207Z,38.31
2022-09-07T16:43:53.642Z,38.35
2022-09-07T16:46:23.696Z,38.02
2022-09-07T16:48:51.215Z,38.81
2022-09-07T16:51:19.573Z,38.96
2022-09-07T16:53:46.201Z,39.37
2022-09-07T16:56:14.955Z,39.18
2022-09-07T16:58:45.630Z,39.41
2022-09-07T17:01:14.600Z,39.98
2022-09-07T17:03:41.801Z,40.30
2022-09-07T17:06:10.106Z,40.48
2022-09-07T17:08:38.544Z,40.79
2022-09-07T17:11:13.387Z,40.48
2022-09-07T17:13:43.622Z,40.73
2022-09-07T17:16:15.711Z,41.21
2022-09-07T17:21:33.287Z,42.23
2022-09-07T17:24:00.496Z,42.70
2022-09-07T17:26:27.395Z,42.50
2022-09-07T17:28:59.595Z,42.61
2022-09-07T17:34:15.810Z,43.16
2022-09-07T17:36:42.815Z,43.89
2022-09-07T17:39:18.432Z,44.35
2022-09-07T17:41:45.996Z,44.60
2022-09-07T17:44:12.687Z,45.20
2022-09-07T17:46:39.240Z,45.51
2022-09-07T17:49:05.668Z,46.31
2022-09-07T17:51:32.571Z,46.09
2022-09-07T17:54:01.269Z,47.03
2022-09-07T17:56:28.127Z,47.77
2022-09-07T18:00:10.731Z,47.74
2022-09-07T18:01:40.945Z,48.08
2022-09-07T18:04:07.304Z,48.81
2022-09-07T18:06:33.746Z,48.16
2022-09-07T18:09:03.585Z,48.95
2022-09-07T18:11:47.697Z,49.99
2022-09-07T18:14:15.243Z,49.49
2022-09-07T18:16:43.772Z,49.40
2022-09-07T18:19:10.762Z,49.50
2022-09-07T18:21:38.217Z,49.94
2022-09-07T18:24:07.746Z,50.61
2022-09-07T18:26:36.360Z,49.92
2022-09-07T18:29:04.781Z,49.73
2022-09-07T18:31:33.394Z,50.64
2022-09-07T18:34:01.760Z,50.53
2022-09-07T18:36:29.084Z,50.57
2022-09-07T18:38:55.498Z,50.52
2022-09-07T18:41:21.868Z,50.67
2022-09-07T18:43:48.618Z,50.58
2022-09-07T18:46:20.243Z,50.60
2022-09-07T18:48:47.250Z,50.17
2022-09-07T18:51:14.109Z,51.20
2022-09-07T18:53:41.299Z,50.80
2022-09-07T18:56:12.839Z,50.49
2022-09-07T18:58:43.412Z,50.86
2022-09-07T19:01:14.862Z,50.30
2022-09-07T19:03:51.669Z,50.81
2022-09-07T19:06:18.028Z,50.56
2022-09-07T19:08:49.971Z,50.79
2022-09-07T19:11:22.025Z,50.53
2022-09-07T19:13:51.236Z,51.29
2022-09-07T19:16:19.475Z,51.27
2022-09-07T19:18:47.490Z,51.54
2022-09-07T19:21:16.932Z,52.58
2022-09-07T19:23:43.390Z,52.30
2022-09-07T19:26:10.487Z,52.35
2022-09-07T19:28:36.827Z,53.27
2022-09-07T19:31:05.048Z,53.04
2022-09-07T19:33:32.655Z,53.16
2022-09-07T19:36:05.956Z,53.05
2022-09-07T19:38:32.615Z,53.63
2022-09-07T19:41:00.617Z,53.60
2022-09-07T19:43:30.972Z,53.94
2022-09-07T19:45:57.333Z,54.07
2022-09-07T19:48:23.733Z,53.82
2022-09-07T19:50:50.035Z,54.22
2022-09-07T19:53:17.884Z,54.84
2022-09-07T19:55:44.434Z,54.31
2022-09-07T19:58:12.007Z,54.34
2022-09-07T20:00:39.597Z,53.91
2022-09-07T20:03:05.948Z,53.86
2022-09-07T20:05:32.275Z,54.40
2022-09-07T20:07:58.595Z,54.53
2022-09-07T20:10:24.949Z,55.04
2022-09-07T20:12:51.332Z,55.21
2022-09-07T20:15:17.679Z,55.44
2022-09-07T20:17:44.050Z,56.04
2022-09-07T20:20:10.495Z,56.38
2022-09-07T20:22:36.975Z,56.42
2022-09-07T20:25:03.802Z,56.30
2022-09-07T20:27:30.343Z,56.27
2022-09-07T20:29:56.706Z,56.41
2022-09-07T20:32:23.222Z,56.65
2022-09-07T20:34:49.550Z,56.60
2022-09-07T20:37:15.914Z,57.35
2022-09-07T20:39:42.335Z,56.50
2022-09-07T20:42:08.662Z,56.78
2022-09-07T20:44:34.969Z,56.93
2022-09-07T20:47:01.417Z,57.17
2022-09-07T20:49:27.768Z,57.26
2022-09-07T20:51:54.104Z,56.87
2022-09-07T20:54:20.445Z,56.79
2022-09-07T20:56:46.845Z,57.62
2022-09-07T20:59:13.421Z,57.26
2022-09-07T21:01:39.793Z,57.16
2022-09-07T21:04:06.371Z,57.14
2022-09-07T21:06:33.021Z,57.08
2022-09-07T21:08:59.610Z,57.62
2022-09-07T21:11:28.338Z,58.06
2022-09-07T21:13:59.273Z,58.35
2022-09-07T21:16:26.457Z,58.79
2022-09-07T21:18:55.652Z,58.45
2022-09-07T21:21:23.726Z,58.42
2022-09-07T21:23:58.403Z,58.76
2022-09-07T21:26:25.268Z,59.34
2022-09-07T21:29:03.320Z,58.98
2022-09-07T21:31:30.897Z,59.23
2022-09-07T21:33:59.369Z,59.75
2022-09-07T21:36:26.548Z,60.02
2022-09-07T21:38:53.672Z,60.58
2022-09-07T21:41:22.452Z,60.31
2022-09-07T21:43:48.971Z,60.36
2022-09-07T21:46:17.904Z,60.46
2022-09-07T21:48:45.446Z,60.85
2022-09-07T21:51:13.567Z,60.98
2022-09-07T21:53:40.330Z,61.38
2022-09-07T21:56:09.949Z,61.81
2022-09-07T21:58:36.448Z,62.40
2022-09-07T22:01:11.272Z,62.16
2022-09-07T22:03:38.791Z,62.71
2022-09-07T22:06:05.275Z,62.95
2022-09-07T22:08:31.716Z,62.94
2022-09-07T22:11:04.851Z,63.03
2022-09-07T22:13:31.271Z,62.84
2022-09-07T22:15:57.943Z,62.47
2022-09-07T22:18:24.444Z,62.74
2022-09-07T22:21:03.309Z,63.01
2022-09-07T22:23:31.844Z,63.36
2022-09-07T22:25:58.485Z,63.59
2022-09-07T22:28:25.436Z,63.67
2022-09-07T22:30:51.820Z,63.79
2022-09-07T22:33:18.165Z,64.05
2022-09-07T22:35:44.544Z,64.00
2022-09-07T22:38:10.870Z,64.62
2022-09-07T22:40:37.290Z,64.73
2022-09-07T22:43:03.805Z,65.06
2022-09-07T22:45:30.153Z,65.01
2022-09-07T22:47:56.901Z,64.62
2022-09-07T22:50:23.288Z,64.42
2022-09-07T22:52:49.637Z,64.92
2022-09-07T22:55:16.325Z,65.04
2022-09-07T22:57:42.958Z,65.16
2022-09-07T23:00:10.451Z,65.21
2022-09-07T23:02:36.845Z,65.40
2022-09-07T23:05:03.385Z,65.56
2022-09-07T23:07:29.755Z,65.91
2022-09-07T23:09:56.091Z,66.08
2022-09-07T23:12:22.830Z,66.34
2022-09-07T23:14:49.153Z,66.18
2022-09-07T23:17:15.489Z,66.23
2022-09-07T23:19:41.895Z,66.27
2022-09-07T23:22:08.586Z,66.58
2022-09-07T23:24:34.999Z,66.88
2022-09-07T23:27:01.369Z,66.94
2022-09-07T23:29:27.715Z,66.55
2022-09-07T23:31:54.201Z,66.63
2022-09-07T23:34:20.861Z,66.79
2022-09-07T23:36:47.200Z,66.86
2022-09-07T23:39:13.904Z,66.99
2022-09-07T23:41:40.586Z,67.43
2022-09-07T23:44:07.713Z,67.64
2022-09-07T23:46:34.362Z,67.66
2022-09-07T23:49:00.723Z,67.96
2022-09-07T23:51:27.182Z,68.08
2022-09-07T23:53:53.645Z,68.38
2022-09-07T23:56:20.687Z,68.63
2022-09-07T23:58:47.197Z,68.90
